METAR AND TAF INFORMATION
METAR FOR LGZA
ADDS - METARS form results

(2304 UTC 26 June 2019)
Data provider http://aviationweather.gov/metar/data/
 
Forecast for: LGZA (ZAKINTHOS AIRPOR, GR)
Text: TAF LGZA 262000Z 2621/2706 02012KT 9999 FEW020
Forecast period: 2100 UTC 26 June 2019 to 0600 UTC 27 June 2019
Forecast type: FROM: standard forecast or significant change
Winds: from the NNE (20 degrees) at 14 MPH (12 knots; 6.2 m/s)
Visibility: 6 or more miles 10+ km)
Ceiling: at least 12,000 feet AGL
Clouds: few clouds at 2000 feet AGL
Weather: no significant weather forecast for this period

 ΧΑΡΤΗΣ ΑΕΡΟΔΡΟΜΙΟΥ

 RUNWAY INFORMATION
Διάδρομος 16 Runway length 7310 ft Runway width 98 ft
Runway elevation 11 ft Runway displaced threshold 640 ft Runway heading 163
Διάδρομος 34 Runway length 7310 ft Runway width 98 ft
Runway elevation 12 ft Runway displaced threshold 659 ft Runway heading 343

 ΣΥΧΝΟΤΗΤΕΣ ΑΕΡΟΔΡΟΜΙΟΥ
Τύπος A/G Όνομα RDO Συχνότητα 563.7 MHZ
Τύπος TWR Όνομα TWR Συχνότητα 125.425 MHZ

 AIRPORT NEAR NAVIGATION AIDS
Τύπος VOR-DME Όνομα Zakinthos Συχνότητα 110800 KHZ
Τύπος NDB Όνομα Zakinthos Συχνότητα 326 KHZ



Hellenic Air Force Virtual - All rights reserved 2019 - Powered by VAM